Time;durP1;ratioP1;P1;durP2;ratioP2;P2;SDS_P1;SDS_P2;PMS_P1;PMS_P2;Temp;Humidity;BMP_temperature;BMP_pressure;BME280_temperature;BME280_humidity;BME280_pressure;Samples;Min_cycle;Max_cycle;Signal;HPM_P1;HPM_P2
2023/07/23 00:00:36;;;;;;;3.47;3.00;;;;;;;15.74;95.34;100860.22;5037217;28;20697;-77
2023/07/23 00:03:03;;;;;;;6.80;4.13;;;;;;;15.74;95.23;100863.69;5020850;28;20075;-77
2023/07/23 00:05:29;;;;;;;3.20;2.90;;;;;;;15.73;95.42;100862.00;5036495;28;20083;-77
2023/07/23 00:07:56;;;;;;;4.45;3.97;;;;;;;15.72;95.18;100854.16;5055041;28;20040;-77
2023/07/23 00:10:23;;;;;;;3.40;3.10;;;;;;;15.72;95.30;100851.50;5035736;28;20044;-77
2023/07/23 00:12:50;;;;;;;4.57;3.92;;;;;;;15.72;95.57;100849.72;5037427;28;20057;-77
2023/07/23 00:15:16;;;;;;;3.45;3.15;;;;;;;15.72;95.30;100852.34;5036975;28;20426;-77
2023/07/23 00:17:42;;;;;;;7.70;4.30;;;;;;;15.72;95.38;100840.94;5036929;28;20236;-77
2023/07/23 00:20:09;;;;;;;3.60;3.33;;;;;;;15.71;95.31;100839.25;5037179;28;20066;-76
2023/07/23 00:22:36;;;;;;;5.82;3.92;;;;;;;15.71;95.27;100844.53;5036679;28;20048;-77
2023/07/23 00:25:02;;;;;;;3.10;2.90;;;;;;;15.71;95.19;100839.25;5037182;28;20031;-77
2023/07/23 00:27:27;;;;;;;3.85;3.28;;;;;;;15.71;95.47;100831.31;5054645;28;20061;-77
2023/07/23 00:29:53;;;;;;;4.25;3.85;;;;;;;15.71;95.33;100828.69;5036912;28;20344;-77
2023/07/23 00:32:19;;;;;;;4.43;3.63;;;;;;;15.71;95.29;100824.25;5036918;28;20063;-77
2023/07/23 00:34:45;;;;;;;5.57;3.53;;;;;;;15.70;95.09;100819.09;5036944;28;20523;-77
2023/07/23 00:37:11;;;;;;;5.82;4.22;;;;;;;15.70;95.56;100813.81;5037117;28;20101;-77
2023/07/23 00:39:38;;;;;;;4.03;3.70;;;;;;;15.69;95.42;100809.47;5036281;28;20036;-77
2023/07/23 00:42:04;;;;;;;4.22;3.92;;;;;;;15.71;95.75;100807.56;5037092;28;20348;-77
2023/07/23 00:44:31;;;;;;;5.72;4.07;;;;;;;15.68;95.77;100805.97;5036225;28;20229;-77
2023/07/23 00:46:58;;;;;;;4.22;3.63;;;;;;;15.70;95.65;100811.16;5054810;28;20036;-77
2023/07/23 00:49:25;;;;;;;7.00;4.57;;;;;;;15.69;96.11;100814.75;5036052;28;20312;-77
2023/07/23 00:51:51;;;;;;;3.70;3.40;;;;;;;15.69;95.87;100806.81;5036957;28;20339;-77
2023/07/23 00:54:18;;;;;;;4.93;4.53;;;;;;;15.68;95.80;100800.69;5036470;28;20098;-77
2023/07/23 00:56:46;;;;;;;4.45;4.05;;;;;;;15.68;96.05;100794.53;5036869;28;20025;-76
2023/07/23 00:59:12;;;;;;;4.85;3.72;;;;;;;15.68;95.93;100783.97;5035877;28;20241;-77
2023/07/23 01:04:29;;;;;;;3.92;3.63;;;;;;;15.69;96.00;100785.69;5144522;22;20060;-73
2023/07/23 01:06:56;;;;;;;6.35;3.67;;;;;;;15.68;96.32;100778.72;5057326;28;20059;-73
2023/07/23 01:09:23;;;;;;;6.43;4.00;;;;;;;15.69;96.42;100778.63;5057341;28;20039;-73
2023/07/23 01:11:50;;;;;;;6.63;4.70;;;;;;;15.68;96.20;100770.78;5076855;28;20040;-73
2023/07/23 01:14:16;;;;;;;3.95;3.65;;;;;;;15.68;96.45;100762.88;5077147;28;20058;-73
2023/07/23 01:16:43;;;;;;;7.03;3.70;;;;;;;15.69;96.32;100769.84;5076679;28;20100;-73
2023/07/23 01:19:11;;;;;;;5.15;4.00;;;;;;;15.68;96.46;100761.09;5076721;28;20032;-73
2023/07/23 01:21:36;;;;;;;5.00;4.40;;;;;;;15.69;96.47;100761.94;5061441;28;20418;-73
2023/07/23 01:24:01;;;;;;;4.95;4.55;;;;;;;15.69;96.58;100751.38;5080512;28;20342;-73
2023/07/23 01:26:27;;;;;;;6.40;4.60;;;;;;;15.68;96.74;100753.19;5079744;28;20059;-73
2023/07/23 01:28:53;;;;;;;4.60;4.10;;;;;;;15.69;96.57;100746.09;5080260;28;20074;-73
2023/07/23 01:31:18;;;;;;;4.50;3.92;;;;;;;15.69;96.69;100741.66;5080199;28;20158;-73
2023/07/23 01:33:45;;;;;;;4.50;4.10;;;;;;;15.69;96.61;100740.81;5078385;28;20040;-73
2023/07/23 01:36:11;;;;;;;4.43;3.92;;;;;;;15.69;96.85;100731.09;5060086;28;20040;-73
2023/07/23 01:38:36;;;;;;;4.00;3.70;;;;;;;15.69;96.77;100722.34;5060105;28;20064;-73
2023/07/23 01:41:02;;;;;;;4.25;3.85;;;;;;;15.69;96.64;100719.69;5077034;28;20040;-73
2023/07/23 01:43:28;;;;;;;4.03;3.60;;;;;;;15.70;96.59;100713.47;5079682;28;20142;-73
2023/07/23 01:45:54;;;;;;;4.60;3.90;;;;;;;15.69;96.77;100709.13;5079254;28;20083;-73
2023/07/23 01:48:21;;;;;;;10.85;4.07;;;;;;;15.69;96.63;100703.84;5078814;28;20342;-73
2023/07/23 01:50:46;;;;;;;5.07;3.83;;;;;;;15.70;96.89;100713.47;5079096;28;20033;-73
2023/07/23 01:53:12;;;;;;;6.55;3.83;;;;;;;15.68;96.88;100702.16;5079192;28;20043;-73
2023/07/23 01:55:37;;;;;;;5.53;4.22;;;;;;;15.69;96.90;100703.84;5078991;28;20032;-73
2023/07/23 01:58:02;;;;;;;4.43;4.03;;;;;;;15.68;97.04;100703.03;5079939;28;20028;-73
2023/07/23 02:00:28;;;;;;;5.35;3.85;;;;;;;15.68;97.00;100703.03;5060644;28;20025;-73
2023/07/23 02:02:53;;;;;;;3.90;3.60;;;;;;;15.68;97.22;100703.03;5079066;28;20028;-73
2023/07/23 02:05:19;;;;;;;4.10;3.72;;;;;;;15.69;97.26;100693.28;5043196;28;20364;-73
2023/07/23 02:07:44;;;;;;;6.05;3.55;;;;;;;15.69;97.13;100696.78;5038629;28;20108;-72
2023/07/23 02:10:11;;;;;;;4.30;3.47;;;;;;;15.69;96.98;100695.94;5048184;28;20057;-73
2023/07/23 02:12:37;;;;;;;4.70;3.50;;;;;;;15.69;97.04;100688.84;5040723;28;20044;-73
2023/07/23 02:15:03;;;;;;;3.97;3.58;;;;;;;15.70;97.25;100679.16;5058544;28;20033;-73
2023/07/23 02:17:28;;;;;;;4.10;3.70;;;;;;;15.68;97.25;100671.34;5058228;28;20033;-73
2023/07/23 02:19:54;;;;;;;3.90;3.60;;;;;;;15.69;97.21;100664.25;5041182;28;20036;-73
2023/07/23 02:22:19;;;;;;;3.58;3.28;;;;;;;15.69;97.13;100666.91;5058451;28;20332;-73
2023/07/23 02:24:45;;;;;;;4.20;3.80;;;;;;;15.69;97.30;100664.25;5058433;28;20056;-73
2023/07/23 02:27:10;;;;;;;4.43;3.78;;;;;;;15.68;97.60;100649.34;5038662;28;20036;-77
2023/07/23 02:29:36;;;;;;;3.10;2.90;;;;;;;15.69;97.30;100653.69;5055757;28;20037;-76
2023/07/23 02:32:02;;;;;;;4.15;3.70;;;;;;;15.69;97.14;100648.41;5055128;28;20029;-75
2023/07/23 02:34:28;;;;;;;3.53;3.22;;;;;;;15.69;97.44;100649.25;5048072;28;20389;-75
2023/07/23 02:36:53;;;;;;;3.78;3.33;;;;;;;15.69;97.44;100638.69;4999419;28;20082;-75
2023/07/23 02:39:19;;;;;;;3.55;3.25;;;;;;;15.69;97.38;100640.50;5020911;28;20095;-75
2023/07/23 02:41:44;;;;;;;3.80;3.50;;;;;;;15.69;97.32;100625.50;5056239;28;20530;-75
2023/07/23 02:44:12;;;;;;;4.00;3.70;;;;;;;15.69;97.55;100624.66;5056646;28;20205;-75
2023/07/23 02:46:37;;;;;;;4.30;3.90;;;;;;;15.69;97.51;100622.84;5055269;28;20036;-76
2023/07/23 02:49:03;;;;;;;3.42;3.13;;;;;;;15.68;97.41;100615.91;5055329;28;20276;-76
2023/07/23 02:51:28;;;;;;;4.18;3.78;;;;;;;15.68;97.54;100615.91;5055349;28;20235;-76
2023/07/23 02:53:54;;;;;;;3.60;3.30;;;;;;;15.69;97.70;100607.00;5055576;28;20041;-76
2023/07/23 02:56:20;;;;;;;4.05;3.60;;;;;;;15.69;97.55;100608.81;5055146;28;20259;-76
2023/07/23 02:58:45;;;;;;;5.70;4.13;;;;;;;15.68;97.73;100613.25;5055558;28;20071;-76
2023/07/23 03:01:10;;;;;;;3.55;3.25;;;;;;;15.69;97.44;100600.91;5055619;28;20196;-76
2023/07/23 03:03:36;;;;;;;3.50;3.20;;;;;;;15.68;97.47;100594.78;5054508;28;20063;-75
2023/07/23 03:06:02;;;;;;;3.97;3.25;;;;;;;15.69;97.34;100593.81;5035415;28;20196;-75
2023/07/23 03:08:28;;;;;;;3.60;3.30;;;;;;;15.69;97.56;100591.19;5035225;28;20301;-75
2023/07/23 03:10:53;;;;;;;3.55;3.25;;;;;;;15.68;97.62;100586.88;5051912;28;20087;-76
2023/07/23 03:13:19;;;;;;;3.25;3.00;;;;;;;15.68;97.58;100581.59;5055676;28;20064;-76
2023/07/23 03:15:45;;;;;;;3.35;3.10;;;;;;;15.68;97.61;100573.66;5055169;28;20036;-76
2023/07/23 03:18:10;;;;;;;4.55;3.35;;;;;;;15.68;98.06;100576.31;5054985;28;20118;-76
2023/07/23 03:20:35;;;;;;;4.03;3.67;;;;;;;15.68;97.46;100573.66;5054994;28;20041;-76
2023/07/23 03:23:01;;;;;;;4.10;3.70;;;;;;;15.67;97.68;100568.47;5054862;28;20059;-76
2023/07/23 03:25:26;;;;;;;4.15;3.45;;;;;;;15.66;97.78;100565.00;5054741;28;20259;-75
2023/07/23 03:27:52;;;;;;;4.20;3.80;;;;;;;15.66;97.63;100559.72;5055066;28;20638;-75
2023/07/23 03:30:17;;;;;;;3.85;3.55;;;;;;;15.67;97.86;100560.56;5054482;28;20032;-75
2023/07/23 03:32:43;;;;;;;4.93;4.53;;;;;;;15.66;97.74;100557.09;5055034;28;20116;-75
2023/07/23 03:35:08;;;;;;;3.72;3.40;;;;;;;15.65;97.85;100555.38;5041156;28;20232;-75
2023/07/23 03:37:33;;;;;;;5.40;3.50;;;;;;;15.65;97.66;100550.09;5034427;28;20037;-75
2023/07/23 03:39:59;;;;;;;5.25;3.55;;;;;;;15.65;97.76;100552.75;5042683;28;20036;-75
2023/07/23 03:42:24;;;;;;;3.70;3.38;;;;;;;15.65;98.03;100555.38;5054114;28;20268;-75
2023/07/23 03:44:50;;;;;;;4.75;3.42;;;;;;;15.65;97.81;100547.47;5054556;28;20029;-75
2023/07/23 03:47:18;;;;;;;4.90;3.45;;;;;;;15.65;97.71;100547.47;5054575;28;20208;-75
2023/07/23 03:49:45;;;;;;;3.92;3.63;;;;;;;15.65;97.50;100544.81;5054380;28;20037;-75
2023/07/23 03:52:10;;;;;;;6.30;4.45;;;;;;;15.65;97.60;100543.97;5054235;28;20036;-75
2023/07/23 03:54:36;;;;;;;4.15;3.75;;;;;;;15.64;97.36;100539.63;5054362;28;20044;-75
2023/07/23 03:57:02;;;;;;;5.03;3.95;;;;;;;15.64;97.43;100545.75;5054536;28;20088;-75
2023/07/23 03:59:36;;;;;;;4.50;3.95;;;;;;;15.64;97.44;100535.19;5053815;28;20032;-75
2023/07/23 04:02:02;;;;;;;5.63;4.30;;;;;;;15.63;97.20;100533.53;5054439;28;20033;-75
2023/07/23 04:04:27;;;;;;;6.07;4.35;;;;;;;15.63;97.13;100532.69;5045948;28;20060;-75
2023/07/23 04:06:53;;;;;;;6.32;4.05;;;;;;;15.64;97.35;100534.34;5034308;28;20034;-75
2023/07/23 04:09:19;;;;;;;6.28;3.70;;;;;;;15.62;97.34;100526.53;5036254;28;20328;-75
2023/07/23 04:11:45;;;;;;;5.35;4.28;;;;;;;15.63;97.20;100535.31;5054322;28;20029;-75
2023/07/23 04:14:10;;;;;;;9.75;5.10;;;;;;;15.63;96.97;100530.88;5055193;28;20033;-75
2023/07/23 04:16:35;;;;;;;4.15;3.60;;;;;;;15.63;97.04;100532.69;5054227;28;20351;-75
2023/07/23 04:19:01;;;;;;;4.03;3.65;;;;;;;15.63;97.00;100530.03;5054029;28;20041;-75
2023/07/23 04:21:26;;;;;;;7.63;4.38;;;;;;;15.63;97.02;100533.53;5054104;28;20039;-76
2023/07/23 04:23:55;;;;;;;4.85;4.45;;;;;;;15.64;97.07;100535.19;5055345;28;20079;-75
2023/07/23 04:26:21;;;;;;;9.23;5.20;;;;;;;15.65;97.02;100538.72;5053733;28;20064;-75
2023/07/23 04:28:47;;;;;;;4.78;3.97;;;;;;;15.65;97.09;100528.97;5054126;28;20083;-75
2023/07/23 04:31:13;;;;;;;6.40;4.85;;;;;;;15.65;97.11;100525.50;5036247;28;20033;-75
2023/07/23 04:33:39;;;;;;;8.63;5.65;;;;;;;15.64;96.73;100522.00;5052689;28;20029;-75
2023/07/23 04:36:07;;;;;;;5.35;4.05;;;;;;;15.66;96.86;100527.19;5034785;28;20217;-75
2023/07/23 04:38:32;;;;;;;5.13;4.63;;;;;;;15.66;96.88;100522.78;5033660;28;20033;-75
2023/07/23 04:40:58;;;;;;;10.10;5.47;;;;;;;15.65;96.70;100523.72;5050222;28;20033;-75
2023/07/23 04:43:23;;;;;;;8.20;5.95;;;;;;;15.66;96.50;100524.53;5053520;28;20028;-76
2023/07/23 04:45:49;;;;;;;5.05;4.55;;;;;;;15.66;96.50;100520.13;5053741;28;20040;-76
2023/07/23 04:48:16;;;;;;;6.25;5.57;;;;;;;15.66;96.74;100516.63;5053709;28;20417;-75
2023/07/23 04:50:41;;;;;;;6.90;5.70;;;;;;;15.67;96.81;100523.59;5053824;28;20243;-75
2023/07/23 04:53:07;;;;;;;6.22;4.90;;;;;;;15.67;96.76;100526.25;5054085;28;20107;-75
2023/07/23 04:55:33;;;;;;;6.63;5.38;;;;;;;15.67;96.47;100526.25;5054597;28;20025;-76
2023/07/23 04:57:58;;;;;;;5.07;4.60;;;;;;;15.68;96.65;100539.34;5058266;28;20037;-75
2023/07/23 05:00:24;;;;;;;7.03;5.45;;;;;;;15.68;96.37;100530.56;5057881;28;20036;-75
2023/07/23 05:02:49;;;;;;;7.35;5.40;;;;;;;15.68;96.62;100527.91;5057532;28;20036;-75
2023/07/23 05:05:15;;;;;;;6.80;4.78;;;;;;;15.68;96.64;100526.16;5043039;28;20057;-75
2023/07/23 05:07:40;;;;;;;5.85;4.32;;;;;;;15.69;96.69;100526.97;5037632;28;20463;-75
2023/07/23 05:10:06;;;;;;;7.43;5.13;;;;;;;15.69;96.57;100521.72;5046007;28;20255;-75
2023/07/23 05:12:32;;;;;;;5.95;5.07;;;;;;;15.69;96.48;100537.53;5056285;28;20239;-76
2023/07/23 05:15:12;;;;;;;5.05;4.28;;;;;;;15.70;96.71;100536.59;5056962;28;20036;-76
2023/07/23 05:17:38;;;;;;;8.88;5.65;;;;;;;15.68;96.61;100547.25;5057600;28;20363;-75
2023/07/23 05:20:06;;;;;;;6.88;5.03;;;;;;;15.68;96.71;100549.91;5057430;28;20029;-75
2023/07/23 05:22:32;;;;;;;6.90;4.60;;;;;;;15.67;96.48;100536.81;5056975;28;20086;-75
2023/07/23 05:24:57;;;;;;;7.25;5.18;;;;;;;15.67;96.64;100539.44;5040147;28;20140;-76
2023/07/23 05:27:23;;;;;;;5.90;5.28;;;;;;;15.66;96.57;100529.81;5057604;28;20346;-75
2023/07/23 05:29:48;;;;;;;7.22;5.22;;;;;;;15.65;96.76;100536.91;5057987;28;20044;-76
2023/07/23 05:32:13;;;;;;;8.50;5.63;;;;;;;15.65;96.55;100541.34;5057660;28;20083;-76
2023/07/23 05:34:39;;;;;;;5.03;4.53;;;;;;;15.64;96.96;100531.72;5048247;28;20097;-76
2023/07/23 05:37:04;;;;;;;5.60;4.93;;;;;;;15.64;97.00;100537.00;5020016;28;20021;-75
2023/07/23 05:39:30;;;;;;;4.85;4.10;;;;;;;15.63;96.92;100536.16;5040992;28;20036;-76
2023/07/23 05:41:55;;;;;;;5.35;4.57;;;;;;;15.62;96.97;100537.09;5056671;28;20106;-76
2023/07/23 05:44:21;;;;;;;5.20;4.70;;;;;;;15.62;97.20;100528.34;5056645;28;20036;-76
2023/07/23 05:46:46;;;;;;;8.15;5.47;;;;;;;15.62;97.22;100533.63;5057122;28;20040;-75
2023/07/23 05:49:12;;;;;;;7.82;5.60;;;;;;;15.62;97.29;100525.69;5056509;28;20035;-75
2023/07/23 05:51:37;;;;;;;5.47;4.75;;;;;;;15.60;97.37;100523.16;5057282;28;20146;-76
2023/07/23 05:54:02;;;;;;;4.93;4.10;;;;;;;15.61;97.38;100524.00;5056513;28;20041;-75
2023/07/23 05:56:29;;;;;;;4.25;3.80;;;;;;;15.60;97.73;100517.03;5056298;28;20084;-75
2023/07/23 05:58:55;;;;;;;3.70;3.40;;;;;;;15.61;97.53;100526.63;5056828;28;20036;-75
2023/07/23 06:01:20;;;;;;;5.15;4.65;;;;;;;15.60;97.47;100524.97;5056172;28;20041;-75
2023/07/23 06:03:45;;;;;;;4.35;3.95;;;;;;;15.60;97.72;100524.97;5055108;28;20039;-75
2023/07/23 06:06:11;;;;;;;4.85;4.45;;;;;;;15.59;98.00;100523.25;5036322;28;20033;-76
2023/07/23 06:08:36;;;;;;;7.05;5.65;;;;;;;15.58;97.96;100516.31;5034971;28;20041;-75
2023/07/23 06:11:01;;;;;;;5.75;4.85;;;;;;;15.58;98.34;100524.22;5053997;28;20032;-75
2023/07/23 06:13:27;;;;;;;5.78;5.07;;;;;;;15.56;98.38;100519.03;5056971;28;20033;-75
2023/07/23 06:15:52;;;;;;;7.07;4.78;;;;;;;15.56;98.85;100524.31;5057866;28;20028;-75
2023/07/23 06:18:17;;;;;;;5.03;4.30;;;;;;;15.55;98.54;100518.22;5056713;28;20057;-75
2023/07/23 06:20:43;;;;;;;5.43;4.28;;;;;;;15.55;98.79;100520.84;5037004;28;20029;-75
2023/07/23 06:23:08;;;;;;;6.05;4.53;;;;;;;15.57;98.84;100519.88;5037117;28;20377;-75
2023/07/23 06:25:34;;;;;;;5.05;4.55;;;;;;;15.57;98.82;100518.06;5036650;28;20029;-75
2023/07/23 06:27:59;;;;;;;4.28;3.88;;;;;;;15.58;98.73;100519.78;5037154;28;20025;-75
2023/07/23 06:30:24;;;;;;;5.65;4.43;;;;;;;15.57;98.86;100518.06;5036445;28;20113;-75
2023/07/23 06:32:50;;;;;;;5.47;4.97;;;;;;;15.57;98.64;100519.88;5036934;28;20024;-75
2023/07/23 06:35:15;;;;;;;6.32;5.22;;;;;;;15.57;98.87;100509.31;5036451;28;20371;-75
2023/07/23 06:37:41;;;;;;;7.00;5.07;;;;;;;15.57;98.81;100512.78;5036890;28;20033;-75
2023/07/23 06:40:07;;;;;;;6.65;5.28;;;;;;;15.56;99.11;100508.47;5040418;28;20045;-75
2023/07/23 06:42:32;;;;;;;10.27;4.90;;;;;;;15.57;99.11;100514.59;5036227;28;20326;-75
2023/07/23 06:44:57;;;;;;;5.20;4.70;;;;;;;15.57;99.04;100517.25;5036720;28;20037;-75
2023/07/23 06:47:23;;;;;;;7.63;4.72;;;;;;;15.57;99.23;100511.97;5035690;28;20038;-76
2023/07/23 06:49:48;;;;;;;7.20;4.70;;;;;;;15.57;99.03;100522.53;5036329;28;20327;-75
2023/07/23 06:52:13;;;;;;;9.05;5.20;;;;;;;15.57;99.33;100528.63;5036513;28;20042;-75
2023/07/23 06:54:42;;;;;;;5.35;4.72;;;;;;;15.58;99.42;100519.78;5018449;28;20029;-75
2023/07/23 06:57:08;;;;;;;8.02;5.93;;;;;;;15.58;99.29;100522.41;5036834;28;20304;-75
2023/07/23 06:59:34;;;;;;;5.45;4.07;;;;;;;15.59;99.31;100517.97;5036289;28;20120;-75
2023/07/23 07:01:59;;;;;;;4.97;4.28;;;;;;;15.59;99.29;100516.22;5036260;28;20044;-76
2023/07/23 07:04:24;;;;;;;5.93;4.43;;;;;;;15.59;99.14;100524.13;5034791;28;20057;-75
2023/07/23 07:06:50;;;;;;;5.63;5.03;;;;;;;15.60;99.18;100509.13;5035591;28;20038;-75
2023/07/23 07:09:16;;;;;;;6.93;4.82;;;;;;;15.60;99.16;100515.25;5038325;28;20243;-75
2023/07/23 07:11:42;;;;;;;4.88;4.43;;;;;;;15.61;99.25;100516.06;5055880;28;20029;-75
2023/07/23 07:14:08;;;;;;;5.05;4.53;;;;;;;15.61;99.00;100518.72;5052952;28;20041;-75
2023/07/23 07:16:33;;;;;;;5.38;4.35;;;;;;;15.61;99.18;100516.06;5035206;28;20030;-75
2023/07/23 07:18:58;;;;;;;7.47;4.40;;;;;;;15.61;99.09;100511.66;5028972;28;20311;-75
2023/07/23 07:21:24;;;;;;;4.85;4.40;;;;;;;15.62;99.03;100518.63;5035480;28;20295;-75
2023/07/23 07:23:49;;;;;;;4.88;4.35;;;;;;;15.63;99.00;100522.13;5035568;28;20213;-75
2023/07/23 07:26:14;;;;;;;8.20;4.40;;;;;;;15.63;99.12;100503.66;5035272;28;20052;-75
2023/07/23 07:28:40;;;;;;;6.47;4.50;;;;;;;15.63;98.97;100498.38;5035561;28;20319;-75
2023/07/23 07:31:05;;;;;;;7.50;5.05;;;;;;;15.62;99.37;100505.41;5017933;28;20251;-75
2023/07/23 07:33:30;;;;;;;7.00;5.00;;;;;;;15.63;99.14;100504.50;5034226;28;20101;-75
2023/07/23 07:35:57;;;;;;;6.88;4.82;;;;;;;15.64;99.23;100505.31;5034319;28;20415;-75
2023/07/23 07:38:23;;;;;;;4.78;4.30;;;;;;;15.64;99.14;100492.97;5033990;28;20243;-75
2023/07/23 07:40:49;;;;;;;6.95;4.78;;;;;;;15.64;99.16;100490.31;5050727;28;20060;-75
2023/07/23 07:43:15;;;;;;;6.57;5.15;;;;;;;15.66;99.38;100498.16;5055470;28;20032;-75
2023/07/23 07:45:40;;;;;;;6.13;4.82;;;;;;;15.65;99.38;100499.09;5054423;28;20219;-75
2023/07/23 07:48:06;;;;;;;5.93;4.45;;;;;;;15.67;99.43;100503.31;5013815;28;20042;-75
2023/07/23 07:50:31;;;;;;;7.18;4.88;;;;;;;15.68;99.29;100509.44;5013064;28;20088;-75
2023/07/23 07:52:56;;;;;;;4.65;4.13;;;;;;;15.69;99.17;100500.59;5012513;28;20209;-75
2023/07/23 07:55:22;;;;;;;4.95;4.55;;;;;;;15.68;99.06;100505.03;5011661;28;20033;-75
2023/07/23 07:57:48;;;;;;;5.50;4.22;;;;;;;15.70;99.13;100500.50;5011139;28;20044;-75
2023/07/23 08:00:14;;;;;;;5.30;4.25;;;;;;;15.71;98.70;100502.16;5011957;28;20106;-75
2023/07/23 08:02:39;;;;;;;7.45;4.88;;;;;;;15.72;98.87;100505.66;5011615;28;20036;-75
2023/07/23 08:05:06;;;;;;;4.60;4.20;;;;;;;15.72;99.32;100498.59;5024158;28;20123;-75
2023/07/23 08:07:32;;;;;;;6.80;4.30;;;;;;;15.73;99.33;100502.06;5030741;28;20353;-75
2023/07/23 08:09:59;;;;;;;4.82;4.28;;;;;;;15.73;99.17;100500.28;5039285;28;20093;-75
2023/07/23 08:12:25;;;;;;;6.43;4.88;;;;;;;15.74;99.29;100498.53;5050866;28;20033;-75
2023/07/23 08:14:53;;;;;;;6.03;4.07;;;;;;;15.75;99.32;100497.56;5051485;28;20028;-75
2023/07/23 08:17:18;;;;;;;4.95;4.40;;;;;;;15.77;99.50;100498.31;5051261;28;20225;-75
2023/07/23 08:19:44;;;;;;;8.48;4.90;;;;;;;15.79;99.72;100506.13;5052268;28;20045;-75
2023/07/23 08:22:10;;;;;;;6.32;4.30;;;;;;;15.79;99.62;100503.47;5052896;28;20040;-75
2023/07/23 08:24:35;;;;;;;5.28;4.78;;;;;;;15.80;99.48;100505.19;5052760;28;20244;-75
2023/07/23 08:27:03;;;;;;;7.25;4.43;;;;;;;15.81;99.59;100502.44;5053079;28;20033;-75
2023/07/23 08:29:29;;;;;;;4.25;3.85;;;;;;;15.81;99.40;100499.78;5052140;28;20394;-75
2023/07/23 08:31:56;;;;;;;6.03;4.03;;;;;;;15.82;99.39;100498.81;5056187;28;20450;-75
2023/07/23 08:34:22;;;;;;;5.40;4.80;;;;;;;15.83;99.78;100497.88;5049639;28;20390;-75
2023/07/23 08:36:48;;;;;;;5.90;4.38;;;;;;;15.84;99.86;100499.56;5037150;28;20025;-75
2023/07/23 08:39:14;;;;;;;6.82;5.35;;;;;;;15.86;99.76;100510.03;5038929;28;20045;-75
2023/07/23 08:42:07;;;;;;;5.35;4.22;;;;;;;15.86;99.83;100502.09;5056934;28;20036;-75
2023/07/23 08:44:44;;;;;;;6.47;4.30;;;;;;;15.87;99.77;100502.00;5056193;28;20131;-74
2023/07/23 08:47:13;;;;;;;5.03;4.38;;;;;;;15.88;99.97;100506.34;5056433;28;20147;-75
2023/07/23 08:49:43;;;;;;;4.25;3.83;;;;;;;15.90;99.77;100500.97;5056425;28;20029;-75
2023/07/23 08:52:12;;;;;;;4.63;4.22;;;;;;;15.91;99.72;100500.00;5056309;28;20024;-75
2023/07/23 08:54:40;;;;;;;5.72;4.50;;;;;;;15.90;99.57;100498.34;5056510;28;20044;-75
2023/07/23 08:57:06;;;;;;;5.35;4.28;;;;;;;15.92;99.48;100499.06;5056614;28;20036;-75
2023/07/23 08:59:33;;;;;;;6.32;4.90;;;;;;;15.92;99.74;100505.19;5055739;28;20052;-76
2023/07/23 09:02:00;;;;;;;4.90;4.50;;;;;;;15.94;99.77;100502.44;5056738;28;20025;-75
2023/07/23 09:04:26;;;;;;;6.85;4.88;;;;;;;15.95;99.56;100506.75;5048175;28;20048;-75
2023/07/23 09:06:51;;;;;;;4.95;4.47;;;;;;;15.96;99.61;100500.53;5036477;28;20315;-75
2023/07/23 09:09:17;;;;;;;5.88;4.65;;;;;;;15.97;99.93;100504.88;5038136;28;20247;-75
2023/07/23 09:11:44;;;;;;;6.38;5.13;;;;;;;15.99;99.86;100516.19;5056147;28;20057;-75
2023/07/23 09:14:13;;;;;;;5.85;4.70;;;;;;;16.01;100.00;100506.34;5056267;28;20033;-75
2023/07/23 09:16:43;;;;;;;4.03;3.50;;;;;;;16.01;100.00;100508.13;5056170;28;20263;-75
2023/07/23 09:19:10;;;;;;;6.05;4.80;;;;;;;16.04;100.00;100518.50;5055938;28;20033;-75
2023/07/23 09:21:37;;;;;;;5.40;4.10;;;;;;;16.03;100.00;100511.53;5055868;28;20029;-76
2023/07/23 09:24:06;;;;;;;4.78;4.38;;;;;;;16.04;100.00;100521.13;5056017;28;20251;-75
2023/07/23 09:26:31;;;;;;;4.50;4.10;;;;;;;16.05;100.00;100521.03;5055428;28;20033;-75
2023/07/23 09:28:59;;;;;;;3.65;3.35;;;;;;;16.05;100.00;100533.41;5055986;28;20295;-75
2023/07/23 09:31:31;;;;;;;4.60;4.20;;;;;;;16.05;100.00;100528.13;5055788;28;20025;-75
2023/07/23 09:33:59;;;;;;;5.07;4.25;;;;;;;16.06;100.00;100533.31;5052421;28;20025;-75
2023/07/23 09:36:27;;;;;;;4.57;4.18;;;;;;;16.07;100.00;100527.06;5035123;28;20119;-76
2023/07/23 09:39:00;;;;;;;4.90;4.47;;;;;;;16.09;100.00;100537.50;5035940;28;20063;-75
2023/07/23 09:41:37;;;;;;;10.68;4.70;;;;;;;16.08;100.00;100531.41;5015247;28;20034;-75
2023/07/23 09:44:07;;;;;;;4.30;3.95;;;;;;;16.09;100.00;100529.59;5016080;28;20376;-75
2023/07/23 09:46:32;;;;;;;5.05;4.47;;;;;;;16.10;100.00;100528.66;5014812;28;20038;-75
2023/07/23 09:48:58;;;;;;;4.82;4.32;;;;;;;16.11;100.00;100530.31;5015934;28;20042;-75
2023/07/23 09:51:24;;;;;;;4.97;4.22;;;;;;;16.12;100.00;100526.75;5015379;28;20034;-75
2023/07/23 09:53:50;;;;;;;4.28;3.67;;;;;;;16.13;100.00;100520.50;5015971;28;20065;-75
2023/07/23 09:56:16;;;;;;;5.30;4.30;;;;;;;16.12;100.00;100532.03;5015528;28;20026;-75
2023/07/23 09:58:44;;;;;;;5.03;4.20;;;;;;;16.14;100.00;100524.00;5015743;28;20037;-75
2023/07/23 10:01:11;;;;;;;5.22;4.72;;;;;;;16.16;100.00;100524.75;5015337;28;20108;-75
2023/07/23 10:03:37;;;;;;;4.38;3.97;;;;;;;16.18;100.00;100521.03;5015611;28;20336;-75
2023/07/23 10:06:03;;;;;;;4.90;4.43;;;;;;;16.21;100.00;100530.53;5035298;28;20037;-75
2023/07/23 10:08:30;;;;;;;4.80;4.40;;;;;;;16.23;100.00;100516.28;5034717;28;20358;-75
2023/07/23 10:10:56;;;;;;;7.45;5.38;;;;;;;16.25;100.00;100526.75;5050562;28;20282;-75
2023/07/23 10:13:22;;;;;;;5.57;4.18;;;;;;;16.26;100.00;100534.56;5054560;28;20111;-75
2023/07/23 10:15:49;;;;;;;6.20;5.63;;;;;;;16.28;100.00;100531.78;5055657;28;20036;-75
2023/07/23 10:18:16;;;;;;;5.63;4.82;;;;;;;16.29;100.00;100534.34;5055046;28;20039;-75
2023/07/23 10:20:44;;;;;;;5.43;4.93;;;;;;;16.30;100.00;100528.13;5054801;28;20052;-75
2023/07/23 10:23:10;;;;;;;9.85;5.63;;;;;;;16.32;100.00;100533.28;5054570;28;20096;-75
2023/07/23 10:25:35;;;;;;;5.20;4.80;;;;;;;16.34;100.00;100523.47;5054446;28;20465;-76
2023/07/23 10:28:07;;;;;;;6.68;5.03;;;;;;;16.34;100.00;100518.19;5038595;28;20033;-75
2023/07/23 10:30:39;;;;;;;5.32;4.53;;;;;;;16.37;100.00;100525.03;5022814;28;20321;-75
2023/07/23 10:33:10;;;;;;;6.38;5.20;;;;;;;16.37;100.00;100523.25;5023163;28;20033;-75
2023/07/23 10:36:00;;;;;;;5.32;4.82;;;;;;;16.40;100.00;100524.81;5024492;28;20302;-75
2023/07/23 10:38:30;;;;;;;4.82;4.32;;;;;;;16.42;100.00;100528.19;5024552;28;20212;-75
2023/07/23 10:40:56;;;;;;;7.40;4.60;;;;;;;16.44;100.00;100528.94;5029913;28;20120;-75
2023/07/23 10:43:22;;;;;;;5.53;5.00;;;;;;;16.46;100.00;100522.59;5022890;28;20040;-75
2023/07/23 10:46:04;;;;;;;4.75;4.32;;;;;;;16.48;100.00;100522.47;5030326;28;20390;-75
2023/07/23 10:48:41;;;;;;;5.75;4.18;;;;;;;16.49;100.00;100525.00;5033666;28;20105;-75
2023/07/23 10:51:08;;;;;;;4.78;4.22;;;;;;;16.50;100.00;100517.94;5034344;28;20083;-76
2023/07/23 10:53:39;;;;;;;6.03;3.92;;;;;;;16.52;100.00;100531.91;5032196;28;20025;-75
2023/07/23 10:56:23;;;;;;;5.80;4.93;;;;;;;16.54;100.00;100529.16;5034202;28;20104;-75
2023/07/23 10:58:49;;;;;;;4.32;4.03;;;;;;;16.56;100.00;100528.06;5034337;28;20286;-76
2023/07/23 11:01:21;;;;;;;5.70;5.13;;;;;;;16.59;100.00;100530.50;5034247;28;20103;-76
2023/07/23 11:03:47;;;;;;;5.20;4.68;;;;;;;16.60;100.00;100534.81;5033949;28;20110;-75
2023/07/23 11:06:31;;;;;;;4.72;4.32;;;;;;;16.63;100.00;100533.78;5033814;28;20037;-76
2023/07/23 11:09:03;;;;;;;5.30;4.90;;;;;;;16.64;100.00;100538.94;5034602;28;20041;-75
2023/07/23 11:11:37;;;;;;;5.38;4.88;;;;;;;16.67;100.00;100533.44;5013648;28;20413;-75
2023/07/23 11:14:15;;;;;;;5.57;5.03;;;;;;;16.70;100.00;100535.03;5014752;28;20041;-75
2023/07/23 11:16:40;;;;;;;5.43;4.93;;;;;;;16.74;100.00;100539.16;5014257;28;20588;-76
2023/07/23 11:19:07;;;;;;;5.60;5.10;;;;;;;16.76;100.00;100518.72;5014388;28;20042;-75
2023/07/23 11:21:33;;;;;;;5.38;4.40;;;;;;;16.78;100.00;100527.38;5013200;28;20280;-76
2023/07/23 11:23:59;;;;;;;5.10;4.57;;;;;;;16.81;100.00;100532.47;5014019;28;20041;-76